createdAt,value
2022-09-25T00:01:29.179Z,5.72
2022-09-25T00:03:57.392Z,5.80
2022-09-25T00:06:29.623Z,6.95
2022-09-25T00:08:59.558Z,4.13
2022-09-25T00:11:31.320Z,4.25
2022-09-25T00:14:01.800Z,6.78
2022-09-25T00:16:33.006Z,5.63
2022-09-25T00:19:19.193Z,11.00
2022-09-25T00:21:52.971Z,4.50
2022-09-25T00:24:22.170Z,5.13
2022-09-25T00:26:50.239Z,6.53
2022-09-25T00:29:20.576Z,2.50
2022-09-25T00:31:48.591Z,4.18
2022-09-25T00:34:16.601Z,2.75
2022-09-25T00:36:44.572Z,7.07
2022-09-25T00:39:14.232Z,2.45
2022-09-25T00:41:42.613Z,2.55
2022-09-25T00:44:56.649Z,3.80
2022-09-25T00:47:48.176Z,3.80
2022-09-25T00:50:29.134Z,3.65
2022-09-25T00:53:05.408Z,2.55
2022-09-25T00:55:39.360Z,4.57
2022-09-25T00:58:08.423Z,6.20
2022-09-25T01:00:36.924Z,6.13
2022-09-25T01:03:06.258Z,5.05
2022-09-25T01:05:39.342Z,3.85
2022-09-25T01:08:12.414Z,4.13
2022-09-25T01:10:42.982Z,5.78
2022-09-25T01:13:14.109Z,3.80
2022-09-25T01:15:52.335Z,4.55
2022-09-25T01:18:46.335Z,7.68
2022-09-25T01:21:32.146Z,4.88
2022-09-25T01:24:32.128Z,5.00
2022-09-25T01:27:32.142Z,6.00
2022-09-25T01:30:11.518Z,2.33
2022-09-25T01:32:57.789Z,3.45
2022-09-25T01:35:39.263Z,5.15
2022-09-25T01:38:23.052Z,4.35
2022-09-25T01:41:03.594Z,2.72
2022-09-25T01:43:39.609Z,4.00
2022-09-25T01:46:15.687Z,8.57
2022-09-25T01:48:48.483Z,3.05
2022-09-25T01:51:22.614Z,4.18
2022-09-25T01:53:55.711Z,6.28
2022-09-25T01:56:33.048Z,2.78
2022-09-25T01:59:09.391Z,4.10
2022-09-25T02:01:45.023Z,4.75
2022-09-25T02:04:21.774Z,1.55
2022-09-25T02:06:52.723Z,4.07
2022-09-25T02:09:26.847Z,2.05
2022-09-25T02:12:07.678Z,5.07
2022-09-25T02:14:43.425Z,4.28
2022-09-25T02:17:38.516Z,2.53
2022-09-25T02:20:30.248Z,4.43
2022-09-25T02:23:07.731Z,3.15
2022-09-25T02:25:41.920Z,4.10
2022-09-25T02:28:10.180Z,9.60
2022-09-25T02:30:38.356Z,4.47
2022-09-25T02:33:07.784Z,6.60
2022-09-25T02:35:35.731Z,5.10
2022-09-25T02:38:04.653Z,8.27
2022-09-25T02:40:43.859Z,5.03
2022-09-25T02:43:37.565Z,2.85
2022-09-25T02:46:18.594Z,1.67
2022-09-25T02:48:55.777Z,4.28
2022-09-25T02:51:36.072Z,4.50
2022-09-25T02:54:11.850Z,5.25
2022-09-25T02:56:47.787Z,4.20
2022-09-25T02:59:24.410Z,2.15
2022-09-25T03:01:53.350Z,10.60
2022-09-25T03:04:26.021Z,3.97
2022-09-25T03:06:55.001Z,4.80
2022-09-25T03:09:25.022Z,2.45
2022-09-25T03:11:53.252Z,3.17
2022-09-25T03:14:21.259Z,3.92
2022-09-25T03:16:56.182Z,4.30
2022-09-25T03:19:29.483Z,3.80
2022-09-25T03:21:57.765Z,4.45
2022-09-25T03:24:25.894Z,2.05
2022-09-25T03:26:54.731Z,2.92
2022-09-25T03:29:22.791Z,4.15
2022-09-25T03:31:50.982Z,5.45
2022-09-25T03:34:21.035Z,4.18
2022-09-25T03:36:50.391Z,3.28
2022-09-25T03:39:18.748Z,2.63
2022-09-25T03:41:47.760Z,4.93
2022-09-25T03:44:15.831Z,4.78
2022-09-25T03:46:43.805Z,4.28
2022-09-25T03:49:12.743Z,8.93
2022-09-25T03:51:41.995Z,5.97
2022-09-25T03:54:11.414Z,4.80
2022-09-25T03:56:39.942Z,3.20
2022-09-25T03:59:08.160Z,3.45
2022-09-25T04:01:36.882Z,7.18
2022-09-25T04:04:05.031Z,6.57
2022-09-25T04:06:33.108Z,2.97
2022-09-25T04:09:01.123Z,5.78
2022-09-25T04:11:31.442Z,4.72
2022-09-25T04:13:59.549Z,7.18
2022-09-25T04:16:29.376Z,5.40
2022-09-25T04:18:57.537Z,5.35
2022-09-25T04:21:25.833Z,8.20
2022-09-25T04:24:11.616Z,4.20
2022-09-25T04:26:41.030Z,7.85
2022-09-25T04:29:09.173Z,7.78
2022-09-25T04:31:37.191Z,12.10
2022-09-25T04:34:04.414Z,9.48
2022-09-25T04:36:32.450Z,10.02
2022-09-25T04:39:00.436Z,13.27
2022-09-25T04:41:28.950Z,9.23
2022-09-25T04:43:58.316Z,7.50
2022-09-25T04:46:26.407Z,8.50
2022-09-25T04:48:54.453Z,7.03
2022-09-25T04:51:22.405Z,4.60
2022-09-25T04:53:50.399Z,4.25
2022-09-25T04:56:18.417Z,9.93
2022-09-25T04:58:50.160Z,9.18
2022-09-25T05:01:22.059Z,15.00
2022-09-25T05:03:53.307Z,17.65
2022-09-25T05:06:21.677Z,15.13
2022-09-25T05:08:50.444Z,13.30
2022-09-25T05:11:18.717Z,9.38
2022-09-25T05:13:51.210Z,8.27
2022-09-25T05:16:21.180Z,7.25
2022-09-25T05:18:49.451Z,7.38
2022-09-25T05:21:17.503Z,6.40
2022-09-25T05:23:45.485Z,5.85
2022-09-25T05:26:13.438Z,8.55
2022-09-25T05:28:41.410Z,5.93
2022-09-25T05:31:10.667Z,7.18
2022-09-25T05:33:40.032Z,4.15
2022-09-25T05:36:09.327Z,4.18
2022-09-25T05:38:40.127Z,6.22
2022-09-25T05:41:11.106Z,7.82
2022-09-25T05:43:42.843Z,4.65
2022-09-25T05:46:11.751Z,3.60
2022-09-25T05:48:41.399Z,6.60
2022-09-25T05:51:10.865Z,4.60
2022-09-25T05:53:39.123Z,15.75
2022-09-25T05:56:08.010Z,7.65
2022-09-25T05:58:36.383Z,8.88
2022-09-25T06:01:06.817Z,6.35
2022-09-25T06:03:35.107Z,4.57
2022-09-25T06:06:05.186Z,6.35
2022-09-25T06:08:35.405Z,10.95
2022-09-25T06:11:05.571Z,4.13
2022-09-25T06:13:34.673Z,3.47
2022-09-25T06:16:04.241Z,4.65
2022-09-25T06:18:32.706Z,8.43
2022-09-25T06:21:05.510Z,8.38
2022-09-25T06:23:33.677Z,8.77
2022-09-25T06:26:03.057Z,6.22
2022-09-25T06:28:31.737Z,7.13
2022-09-25T06:31:02.116Z,2.97
2022-09-25T06:33:30.987Z,5.93
2022-09-25T06:36:00.294Z,2.83
2022-09-25T06:38:29.674Z,4.47
2022-09-25T06:41:00.687Z,4.80
2022-09-25T06:43:30.020Z,5.40
2022-09-25T06:46:03.475Z,2.42
2022-09-25T06:48:32.039Z,3.88
2022-09-25T06:51:01.719Z,3.63
2022-09-25T06:53:31.498Z,5.55
2022-09-25T06:56:00.725Z,4.35
2022-09-25T06:58:30.469Z,5.40
2022-09-25T07:00:59.338Z,5.97
2022-09-25T07:03:44.714Z,3.42
2022-09-25T07:06:15.988Z,4.40
2022-09-25T07:08:46.247Z,3.90
2022-09-25T07:11:16.423Z,6.07
2022-09-25T07:13:44.922Z,3.78
2022-09-25T07:16:15.519Z,8.80
2022-09-25T07:18:44.789Z,2.47
2022-09-25T07:21:16.810Z,4.88
2022-09-25T07:23:49.614Z,5.65
2022-09-25T07:26:21.715Z,6.00
2022-09-25T07:28:55.029Z,4.18
2022-09-25T07:31:26.506Z,5.93
2022-09-25T07:33:54.642Z,5.95
2022-09-25T07:36:22.990Z,5.85
2022-09-25T07:38:53.708Z,4.43
2022-09-25T07:41:23.572Z,4.82
2022-09-25T07:44:02.040Z,4.95
2022-09-25T07:46:44.541Z,2.78
2022-09-25T07:49:13.269Z,4.43
2022-09-25T07:51:41.297Z,6.53
2022-09-25T07:54:10.691Z,3.50
2022-09-25T07:56:39.047Z,5.28
2022-09-25T07:59:07.269Z,4.72
2022-09-25T08:01:38.386Z,3.70
2022-09-25T08:04:10.783Z,5.72
2022-09-25T08:06:39.057Z,4.07
2022-09-25T08:09:10.653Z,2.83
2022-09-25T08:11:40.398Z,3.50
2022-09-25T08:14:08.554Z,4.80
2022-09-25T08:16:36.675Z,4.85
2022-09-25T08:19:05.116Z,2.95
2022-09-25T08:21:33.326Z,6.15
2022-09-25T08:24:02.045Z,3.88
2022-09-25T08:26:30.382Z,3.35
2022-09-25T08:29:00.362Z,3.75
2022-09-25T08:31:28.393Z,6.18
2022-09-25T08:34:02.718Z,4.28
2022-09-25T08:36:41.068Z,4.00
2022-09-25T08:39:09.315Z,5.13
2022-09-25T08:41:49.197Z,3.40
2022-09-25T08:44:29.008Z,6.10
2022-09-25T08:47:20.052Z,2.78
2022-09-25T08:50:09.808Z,4.85
2022-09-25T08:52:42.919Z,3.63
2022-09-25T08:55:16.328Z,4.75
2022-09-25T08:57:47.177Z,6.85
2022-09-25T09:00:21.991Z,8.60
2022-09-25T09:02:55.525Z,2.03
2022-09-25T09:05:30.289Z,2.05
2022-09-25T09:08:03.749Z,2.10
2022-09-25T09:10:38.730Z,2.20
2022-09-25T09:13:17.783Z,4.72
2022-09-25T09:15:56.981Z,3.03
2022-09-25T09:18:27.913Z,2.38
2022-09-25T09:20:58.064Z,0.88
2022-09-25T09:23:35.142Z,4.45
2022-09-25T09:26:06.054Z,4.00
2022-09-25T09:29:18.834Z,4.47
2022-09-25T09:32:00.702Z,1.95
2022-09-25T09:35:07.453Z,3.78
2022-09-25T09:37:51.050Z,1.13
2022-09-25T09:40:47.072Z,3.63
2022-09-25T09:43:32.991Z,1.63
2022-09-25T09:46:15.289Z,4.50
2022-09-25T09:48:56.716Z,3.20
2022-09-25T09:51:35.996Z,2.83
2022-09-25T09:54:12.134Z,2.00
2022-09-25T09:57:12.344Z,1.10
2022-09-25T09:59:49.865Z,3.38
2022-09-25T10:02:37.022Z,4.45
2022-09-25T10:05:17.185Z,1.17
2022-09-25T10:07:47.248Z,2.83
2022-09-25T10:10:17.434Z,2.92
2022-09-25T10:12:51.283Z,1.65
2022-09-25T10:15:30.965Z,2.70
2022-09-25T10:18:02.696Z,1.00
2022-09-25T10:20:41.635Z,2.13
2022-09-25T10:23:30.101Z,2.60
2022-09-25T10:25:58.275Z,1.35
2022-09-25T10:28:34.175Z,3.85
2022-09-25T10:31:04.733Z,1.98
2022-09-25T10:33:34.021Z,2.00
2022-09-25T10:36:03.436Z,0.65
2022-09-25T10:38:41.390Z,0.68
2022-09-25T10:41:13.837Z,2.03
2022-09-25T10:43:54.005Z,2.00
2022-09-25T10:46:48.956Z,1.17
2022-09-25T10:49:47.195Z,1.77
2022-09-25T10:52:19.287Z,3.75
2022-09-25T10:54:47.816Z,2.15
2022-09-25T10:57:33.982Z,6.70
2022-09-25T11:00:04.787Z,4.03
2022-09-25T11:02:40.131Z,3.95
2022-09-25T11:05:17.724Z,2.67
2022-09-25T11:07:52.260Z,4.97
2022-09-25T11:10:24.245Z,3.38
2022-09-25T11:12:53.415Z,1.30
2022-09-25T11:15:26.652Z,1.45
2022-09-25T11:17:57.276Z,4.38
2022-09-25T11:20:30.487Z,3.22
2022-09-25T11:23:25.999Z,1.55
2022-09-25T11:26:07.940Z,1.40
2022-09-25T11:28:44.324Z,1.50
2022-09-25T11:31:22.919Z,1.27
2022-09-25T11:34:03.591Z,1.45
2022-09-25T11:36:39.539Z,1.35
2022-09-25T11:39:35.724Z,2.63
2022-09-25T11:42:10.862Z,0.80
2022-09-25T11:44:54.215Z,3.83
2022-09-25T11:47:30.944Z,1.50
2022-09-25T11:50:02.139Z,2.63
2022-09-25T11:52:42.334Z,5.47
2022-09-25T11:55:50.152Z,0.77
2022-09-25T11:58:46.887Z,0.88
2022-09-25T12:01:32.564Z,1.73
2022-09-25T12:04:41.471Z,0.98
2022-09-25T12:07:35.834Z,5.43
2022-09-25T12:10:36.285Z,1.48
2022-09-25T12:13:17.296Z,3.80
2022-09-25T12:16:01.762Z,3.83
2022-09-25T12:19:00.224Z,2.83
2022-09-25T12:21:36.349Z,1.17
2022-09-25T12:24:16.450Z,1.13
2022-09-25T12:26:54.135Z,0.60
2022-09-25T12:29:43.852Z,1.73
2022-09-25T12:32:28.461Z,2.67
2022-09-25T12:35:23.774Z,2.72
2022-09-25T12:37:58.403Z,3.15
2022-09-25T12:40:34.049Z,1.70
2022-09-25T12:43:08.279Z,1.83
2022-09-25T12:45:45.923Z,1.77
2022-09-25T12:48:19.450Z,3.05
2022-09-25T12:50:59.399Z,4.53
2022-09-25T12:53:35.917Z,0.77
2022-09-25T12:56:15.651Z,0.90
2022-09-25T12:59:01.901Z,3.45
2022-09-25T13:01:45.425Z,0.70
2022-09-25T13:04:34.483Z,1.75
2022-09-25T13:07:16.686Z,1.52
2022-09-25T13:09:49.586Z,0.95
2022-09-25T13:12:34.506Z,2.35
2022-09-25T13:15:09.369Z,1.50
2022-09-25T13:17:41.468Z,1.85
2022-09-25T13:20:48.776Z,1.98
2022-09-25T13:23:29.774Z,1.30
2022-09-25T13:26:02.655Z,3.05
2022-09-25T13:28:35.049Z,1.27
2022-09-25T13:31:11.081Z,1.05
2022-09-25T13:33:49.868Z,0.55
2022-09-25T13:36:46.948Z,2.55
2022-09-25T13:39:41.687Z,1.00
2022-09-25T13:42:22.320Z,0.70
2022-09-25T13:45:32.313Z,1.23
2022-09-25T13:48:07.881Z,1.67
2022-09-25T13:50:43.639Z,2.97
2022-09-25T13:53:33.606Z,2.08
2022-09-25T13:56:24.341Z,3.00
2022-09-25T13:59:37.491Z,2.05
2022-09-25T14:02:50.291Z,4.28
2022-09-25T14:05:21.926Z,2.95
2022-09-25T14:07:58.147Z,0.93
2022-09-25T14:10:28.706Z,3.50
2022-09-25T14:12:57.039Z,2.30
2022-09-25T14:15:32.980Z,4.22
2022-09-25T14:18:08.312Z,1.42
2022-09-25T14:20:44.917Z,3.70
2022-09-25T14:23:23.117Z,3.50
2022-09-25T14:26:02.042Z,3.28
2022-09-25T14:28:36.637Z,4.18
2022-09-25T14:31:24.203Z,1.73
2022-09-25T14:34:46.513Z,2.15
2022-09-25T14:37:37.134Z,4.78
2022-09-25T14:40:21.255Z,1.40
2022-09-25T14:43:29.675Z,2.75
2022-09-25T14:46:06.511Z,1.00
2022-09-25T14:48:40.939Z,1.30
2022-09-25T14:51:13.679Z,4.00
2022-09-25T14:53:47.101Z,0.82
2022-09-25T14:56:16.695Z,3.17
2022-09-25T14:58:50.216Z,1.38
2022-09-25T15:01:27.736Z,4.00
2022-09-25T15:04:32.229Z,1.83
2022-09-25T15:07:10.067Z,0.60
2022-09-25T15:09:47.163Z,3.28
2022-09-25T15:12:25.606Z,1.25
2022-09-25T15:15:08.064Z,2.30
2022-09-25T15:17:49.432Z,2.63
2022-09-25T15:20:21.586Z,0.93
2022-09-25T15:22:55.695Z,2.25
2022-09-25T15:25:30.056Z,2.72
2022-09-25T15:28:00.285Z,2.95
2022-09-25T15:30:29.759Z,2.90
2022-09-25T15:33:01.037Z,1.00
2022-09-25T15:35:31.026Z,1.40
2022-09-25T15:41:20.743Z,2.78
2022-09-25T15:43:51.113Z,1.13
2022-09-25T15:46:37.447Z,0.80
2022-09-25T15:49:07.111Z,0.70
2022-09-25T15:51:37.363Z,0.70
2022-09-25T15:54:28.171Z,1.05
2022-09-25T15:56:58.735Z,5.53
2022-09-25T15:59:32.710Z,3.33
2022-09-25T16:02:29.630Z,0.75
2022-09-25T16:04:57.755Z,1.40
2022-09-25T16:07:33.008Z,3.15
2022-09-25T16:10:05.910Z,1.58
2022-09-25T16:12:45.854Z,0.85
2022-09-25T16:15:50.047Z,3.03
2022-09-25T16:18:36.403Z,1.33
2022-09-25T16:21:27.480Z,0.90
2022-09-25T16:24:00.084Z,1.88
2022-09-25T16:26:37.329Z,3.42
2022-09-25T16:29:21.545Z,0.65
2022-09-25T16:31:54.994Z,1.33
2022-09-25T16:34:28.901Z,1.17
2022-09-25T16:37:02.901Z,0.73
2022-09-25T16:39:34.779Z,2.00
2022-09-25T16:42:31.470Z,0.80
2022-09-25T16:45:14.703Z,1.58
2022-09-25T16:47:49.306Z,1.85
2022-09-25T16:50:18.979Z,0.82
2022-09-25T16:52:49.766Z,0.82
2022-09-25T16:55:29.212Z,2.33
2022-09-25T16:58:00.108Z,0.82
2022-09-25T17:00:30.203Z,2.75
2022-09-25T17:03:01.353Z,0.88
2022-09-25T17:05:32.240Z,1.30
2022-09-25T17:08:17.056Z,2.22
2022-09-25T17:10:49.204Z,1.55
2022-09-25T17:13:20.314Z,2.17
2022-09-25T17:15:48.460Z,2.25
2022-09-25T17:18:21.087Z,0.80
2022-09-25T17:20:53.342Z,0.80
2022-09-25T17:23:24.759Z,1.00
2022-09-25T17:26:00.796Z,0.77
2022-09-25T17:28:33.204Z,2.30
2022-09-25T17:31:01.869Z,1.13
2022-09-25T17:33:32.339Z,1.90
2022-09-25T17:36:04.761Z,2.30
2022-09-25T17:38:33.853Z,2.38
2022-09-25T17:41:05.907Z,1.30
2022-09-25T17:43:34.627Z,1.08
2022-09-25T17:46:02.909Z,1.80
2022-09-25T17:48:33.063Z,1.05
2022-09-25T17:51:04.031Z,1.75
2022-09-25T17:53:34.572Z,1.73
2022-09-25T17:56:03.490Z,1.98
2022-09-25T17:58:32.741Z,0.68
2022-09-25T18:01:03.424Z,1.73
2022-09-25T18:03:33.245Z,0.85
2022-09-25T18:06:01.207Z,1.15
2022-09-25T18:08:29.232Z,0.70
2022-09-25T18:10:59.786Z,3.03
2022-09-25T18:13:27.967Z,2.47
2022-09-25T18:15:59.922Z,1.30
2022-09-25T18:18:55.886Z,0.88
2022-09-25T18:21:41.663Z,1.20
2022-09-25T18:24:09.764Z,1.33
2022-09-25T18:26:38.236Z,2.95
2022-09-25T18:29:06.414Z,1.58
2022-09-25T18:31:34.702Z,1.20
2022-09-25T18:34:04.131Z,1.50
2022-09-25T18:36:33.046Z,2.17
2022-09-25T18:39:01.029Z,3.45
2022-09-25T18:41:29.293Z,3.30
2022-09-25T18:43:57.738Z,1.60
2022-09-25T18:46:26.130Z,1.92
2022-09-25T18:48:55.963Z,1.15
2022-09-25T18:51:25.455Z,3.25
2022-09-25T18:53:54.149Z,2.05
2022-09-25T18:56:22.279Z,1.48
2022-09-25T18:58:51.671Z,1.35
2022-09-25T19:01:20.089Z,1.67
2022-09-25T19:03:51.838Z,2.90
2022-09-25T19:06:20.179Z,1.50
2022-09-25T19:08:56.019Z,2.88
2022-09-25T19:11:24.740Z,0.73
2022-09-25T19:13:52.929Z,1.13
2022-09-25T19:16:22.120Z,2.15
2022-09-25T19:18:51.150Z,1.00
2022-09-25T19:21:22.395Z,1.90
2022-09-25T19:23:51.753Z,1.90
2022-09-25T19:26:25.665Z,2.67
2022-09-25T19:28:55.076Z,2.65
2022-09-25T19:31:25.634Z,3.03
2022-09-25T19:33:54.622Z,1.38
2022-09-25T19:36:26.226Z,1.10
2022-09-25T19:38:55.481Z,1.95
2022-09-25T19:41:28.029Z,3.20
2022-09-25T19:43:59.016Z,0.85
2022-09-25T19:46:28.714Z,3.50
2022-09-25T19:48:57.187Z,1.70
2022-09-25T19:51:26.860Z,5.90
2022-09-25T19:53:55.389Z,1.58
2022-09-25T19:56:24.785Z,2.53
2022-09-25T19:58:52.941Z,1.83
2022-09-25T20:01:24.144Z,1.88
2022-09-25T20:03:52.290Z,2.67
2022-09-25T20:06:20.381Z,2.40
2022-09-25T20:08:48.501Z,1.35
2022-09-25T20:11:20.011Z,1.60
2022-09-25T20:13:51.718Z,0.88
2022-09-25T20:16:24.115Z,1.30
2022-09-25T20:18:55.503Z,1.45
2022-09-25T20:21:26.195Z,3.00
2022-09-25T20:23:57.128Z,3.60
2022-09-25T20:26:26.090Z,1.73
2022-09-25T20:28:59.291Z,1.40
2022-09-25T20:31:30.386Z,2.53
2022-09-25T20:33:58.630Z,1.70
2022-09-25T20:36:27.404Z,2.17
2022-09-25T20:38:57.683Z,1.45
2022-09-25T20:41:27.479Z,1.55
2022-09-25T20:43:58.806Z,1.75
2022-09-25T20:46:29.127Z,1.40
2022-09-25T20:48:59.273Z,1.40
2022-09-25T20:51:29.659Z,1.65
2022-09-25T20:54:00.568Z,4.32
2022-09-25T20:56:30.872Z,4.45
2022-09-25T20:59:01.753Z,3.22
2022-09-25T21:01:34.489Z,1.92
2022-09-25T21:04:05.253Z,1.98
2022-09-25T21:06:36.565Z,1.63
2022-09-25T21:09:08.338Z,3.65
2022-09-25T21:11:37.432Z,3.83
2022-09-25T21:14:06.984Z,4.28
2022-09-25T21:16:35.038Z,3.13
2022-09-25T21:19:05.254Z,1.98
2022-09-25T21:21:34.626Z,3.25
2022-09-25T21:24:03.179Z,2.90
2022-09-25T21:26:32.919Z,2.40
2022-09-25T21:29:06.308Z,2.55
2022-09-25T21:31:37.632Z,3.58
2022-09-25T21:34:08.150Z,3.17
2022-09-25T21:36:36.249Z,5.68
2022-09-25T21:39:06.124Z,2.10
2022-09-25T21:41:34.853Z,2.58
2022-09-25T21:44:08.603Z,5.55
2022-09-25T21:46:36.582Z,3.05
2022-09-25T21:49:07.600Z,4.72
2022-09-25T21:51:39.410Z,3.42
2022-09-25T21:54:09.951Z,2.20
2022-09-25T21:56:38.060Z,3.50
2022-09-25T21:59:09.347Z,3.25
2022-09-25T22:01:39.965Z,3.78
2022-09-25T22:04:12.483Z,3.72
2022-09-25T22:06:43.627Z,1.95
2022-09-25T22:09:16.091Z,2.25
2022-09-25T22:11:45.055Z,3.53
2022-09-25T22:14:16.489Z,2.20
2022-09-25T22:16:47.500Z,2.08
2022-09-25T22:19:18.886Z,2.85
2022-09-25T22:21:50.406Z,6.20
2022-09-25T22:24:18.919Z,3.20
2022-09-25T22:26:51.430Z,2.85
2022-09-25T22:29:21.919Z,3.75
2022-09-25T22:31:50.815Z,3.58
2022-09-25T22:34:22.731Z,3.17
2022-09-25T22:36:57.796Z,3.00
2022-09-25T22:39:27.148Z,5.18
2022-09-25T22:41:56.847Z,5.55
2022-09-25T22:44:26.774Z,2.58
2022-09-25T22:46:55.086Z,3.83
2022-09-25T22:49:23.665Z,4.22
2022-09-25T22:51:51.635Z,4.43
2022-09-25T22:54:19.907Z,2.15
2022-09-25T22:56:48.011Z,3.72
2022-09-25T22:59:17.999Z,1.60
2022-09-25T23:01:50.305Z,3.50
2022-09-25T23:04:21.196Z,2.40
2022-09-25T23:06:49.979Z,3.15
2022-09-25T23:09:21.599Z,3.45
2022-09-25T23:14:22.530Z,2.25
2022-09-25T23:16:54.967Z,2.72
2022-09-25T23:19:24.322Z,5.38
2022-09-25T23:21:53.909Z,6.22
2022-09-25T23:24:23.876Z,4.60
2022-09-25T23:26:52.669Z,4.38
2022-09-25T23:29:22.804Z,3.28
2022-09-25T23:31:52.532Z,4.28
2022-09-25T23:34:20.690Z,3.38
2022-09-25T23:36:48.931Z,4.38
2022-09-25T23:39:19.866Z,2.92
2022-09-25T23:41:48.671Z,3.95
2022-09-25T23:44:16.768Z,2.38
2022-09-25T23:46:45.069Z,2.22
2022-09-25T23:49:17.675Z,2.22
2022-09-25T23:51:46.177Z,3.00
2022-09-25T23:54:14.790Z,2.30
2022-09-25T23:56:43.394Z,3.90
2022-09-25T23:59:13.529Z,2.97
